createdAt,value
2019-05-23T00:00:53.294Z,90.50
2019-05-23T00:03:23.537Z,90.70
2019-05-23T00:05:53.541Z,90.70
2019-05-23T00:08:23.811Z,90.80
2019-05-23T00:10:54.290Z,90.80
2019-05-23T00:13:24.957Z,90.80
2019-05-23T00:15:55.443Z,90.80
2019-05-23T00:18:25.619Z,90.90
2019-05-23T00:20:54.312Z,90.90
2019-05-23T00:23:22.964Z,91.00
2019-05-23T00:25:52.687Z,91.10
2019-05-23T00:28:22.838Z,91.10
2019-05-23T00:30:52.738Z,91.00
2019-05-23T00:33:25.471Z,91.20
2019-05-23T00:35:53.763Z,91.10
2019-05-23T00:38:22.270Z,91.00
2019-05-23T00:40:52.897Z,91.00
2019-05-23T00:43:22.303Z,91.10
2019-05-23T00:45:50.628Z,91.10
2019-05-23T00:48:20.155Z,90.80
2019-05-23T00:50:48.914Z,90.80
2019-05-23T00:53:17.275Z,90.80
2019-05-23T00:55:46.993Z,90.90
2019-05-23T00:58:16.833Z,90.80
2019-05-23T01:00:45.481Z,90.50
2019-05-23T01:03:14.513Z,90.50
2019-05-23T01:05:42.863Z,90.50
2019-05-23T01:08:11.489Z,90.40
2019-05-23T01:10:40.273Z,90.70
2019-05-23T01:13:10.337Z,90.80
2019-05-23T01:15:39.514Z,90.80
2019-05-23T01:18:09.384Z,90.80
2019-05-23T01:20:55.412Z,90.80
2019-05-23T01:23:25.313Z,91.00
2019-05-23T01:25:53.852Z,91.10
2019-05-23T01:28:22.678Z,91.20
2019-05-23T01:30:52.943Z,91.20
2019-05-23T01:33:21.557Z,91.40
2019-05-23T01:35:50.660Z,91.40
2019-05-23T01:38:20.616Z,91.40
2019-05-23T01:40:49.240Z,91.20
2019-05-23T01:43:18.021Z,91.50
2019-05-23T01:45:46.284Z,91.30
2019-05-23T01:48:14.996Z,91.40
2019-05-23T01:50:43.250Z,91.20
2019-05-23T01:53:11.906Z,91.20
2019-05-23T01:55:41.798Z,91.20
2019-05-23T01:58:10.063Z,91.30
2019-05-23T02:00:38.322Z,90.90
2019-05-23T02:03:06.770Z,90.90
2019-05-23T02:05:35.077Z,90.80
2019-05-23T02:08:04.129Z,90.80
2019-05-23T02:10:32.532Z,90.70
2019-05-23T02:13:00.858Z,90.60
2019-05-23T02:15:30.424Z,90.60
2019-05-23T02:17:59.153Z,90.80
2019-05-23T02:20:28.523Z,90.90
2019-05-23T02:22:56.855Z,91.10
2019-05-23T02:25:26.488Z,91.10
2019-05-23T02:27:55.689Z,91.20
2019-05-23T02:30:33.737Z,91.30
2019-05-23T02:32:54.661Z,91.40
2019-05-23T02:35:22.998Z,91.30
2019-05-23T02:37:52.926Z,91.30
2019-05-23T02:40:39.550Z,91.20
2019-05-23T02:43:21.611Z,91.20
2019-05-23T02:45:57.726Z,91.10
2019-05-23T02:48:35.455Z,91.10
2019-05-23T02:51:07.049Z,91.00
2019-05-23T02:53:35.379Z,90.90
2019-05-23T02:56:05.849Z,91.00
2019-05-23T02:58:57.498Z,91.00
2019-05-23T03:01:42.535Z,91.00
2019-05-23T03:04:12.482Z,91.00
2019-05-23T03:06:41.501Z,91.00
2019-05-23T03:09:11.845Z,91.00
2019-05-23T03:11:42.116Z,91.00
2019-05-23T03:14:11.607Z,91.00
2019-05-23T03:16:40.871Z,91.10
2019-05-23T03:19:21.941Z,91.00
2019-05-23T03:21:53.300Z,91.00
2019-05-23T03:24:21.552Z,90.90
2019-05-23T03:27:01.428Z,91.00
2019-05-23T03:29:31.462Z,90.80
2019-05-23T03:32:13.307Z,90.70
2019-05-23T03:34:43.273Z,90.80
2019-05-23T03:37:11.572Z,90.80
2019-05-23T03:39:39.850Z,90.80
2019-05-23T03:42:09.434Z,90.80
2019-05-23T03:44:38.968Z,90.70
2019-05-23T03:47:09.125Z,90.60
2019-05-23T03:49:39.234Z,90.60
2019-05-23T03:52:10.225Z,90.60
2019-05-23T03:54:39.953Z,91.00
2019-05-23T03:57:08.892Z,91.10
2019-05-23T03:59:38.274Z,90.80
2019-05-23T04:02:07.307Z,90.90
2019-05-23T04:04:36.740Z,90.90
2019-05-23T04:07:05.245Z,90.90
2019-05-23T04:09:33.764Z,90.80
2019-05-23T04:12:02.334Z,90.80
2019-05-23T04:14:30.637Z,90.90
2019-05-23T04:16:59.404Z,90.80
2019-05-23T04:19:27.807Z,90.70
2019-05-23T04:21:56.057Z,90.70
2019-05-23T04:24:24.326Z,90.80
2019-05-23T04:26:52.650Z,90.80
2019-05-23T04:29:21.061Z,91.00
2019-05-23T04:32:06.251Z,90.90
2019-05-23T04:34:19.947Z,90.80
2019-05-23T04:36:48.269Z,90.80
2019-05-23T04:39:16.530Z,90.80
2019-05-23T04:41:45.159Z,90.60
2019-05-23T04:44:13.563Z,90.90
2019-05-23T04:46:41.830Z,90.80
2019-05-23T04:49:11.137Z,90.80
2019-05-23T04:51:39.739Z,90.90
2019-05-23T04:54:08.047Z,91.00
2019-05-23T04:56:36.450Z,91.00
2019-05-23T04:59:05.296Z,91.10
2019-05-23T05:01:34.494Z,91.00
2019-05-23T05:04:03.520Z,91.10
2019-05-23T05:06:31.853Z,91.10
2019-05-23T05:09:00.369Z,91.30
2019-05-23T05:11:30.603Z,91.20
2019-05-23T05:13:59.428Z,91.40
2019-05-23T05:16:27.677Z,91.30
2019-05-23T05:18:55.952Z,91.30
2019-05-23T05:21:24.286Z,91.20
2019-05-23T05:23:52.620Z,91.10
2019-05-23T05:26:22.573Z,91.00
2019-05-23T05:28:52.020Z,90.90
2019-05-23T05:31:20.938Z,90.90
2019-05-23T05:33:49.229Z,90.90
2019-05-23T05:36:17.476Z,90.70
2019-05-23T05:38:45.760Z,90.80
2019-05-23T05:41:14.663Z,90.30
2019-05-23T05:43:42.903Z,90.80
2019-05-23T05:46:11.248Z,90.10
2019-05-23T05:48:39.548Z,90.00
2019-05-23T05:51:07.844Z,90.10
2019-05-23T05:53:36.095Z,90.20
2019-05-23T05:56:04.627Z,90.30
2019-05-23T05:58:33.058Z,90.20
2019-05-23T06:01:02.854Z,90.10
2019-05-23T06:03:31.440Z,89.80
2019-05-23T06:06:07.388Z,90.20
2019-05-23T06:08:39.675Z,90.30
2019-05-23T06:11:08.603Z,90.40
2019-05-23T06:13:36.929Z,90.40
2019-05-23T06:16:05.273Z,90.40
2019-05-23T06:18:34.734Z,90.10
2019-05-23T06:21:06.226Z,89.90
2019-05-23T06:23:34.739Z,90.20
2019-05-23T06:26:02.997Z,90.40
2019-05-23T06:28:31.630Z,90.50
2019-05-23T06:31:00.876Z,90.00
2019-05-23T06:33:30.751Z,90.00
2019-05-23T06:35:59.927Z,90.00
2019-05-23T06:38:29.124Z,90.00
2019-05-23T06:40:57.646Z,89.50
2019-05-23T06:43:26.155Z,89.00
2019-05-23T06:45:54.768Z,89.00
2019-05-23T06:48:23.174Z,88.20
2019-05-23T06:50:51.433Z,88.20
2019-05-23T06:53:19.682Z,88.00
2019-05-23T06:55:47.966Z,88.30
2019-05-23T06:58:16.696Z,88.20
2019-05-23T07:00:45.215Z,88.30
2019-05-23T07:03:13.697Z,88.10
2019-05-23T07:05:42.310Z,87.60
2019-05-23T07:08:10.582Z,87.10
2019-05-23T07:10:39.010Z,86.80
2019-05-23T07:13:07.241Z,87.20
2019-05-23T07:15:35.798Z,85.60
2019-05-23T07:18:04.075Z,85.00
2019-05-23T07:20:32.320Z,84.10
2019-05-23T07:23:00.950Z,83.80
2019-05-23T07:25:29.675Z,83.90
2019-05-23T07:27:58.690Z,84.20
2019-05-23T07:30:27.291Z,84.50
2019-05-23T07:32:56.046Z,83.60
2019-05-23T07:35:24.477Z,82.90
2019-05-23T07:37:52.742Z,82.20
2019-05-23T07:40:21.555Z,79.20
2019-05-23T07:42:49.815Z,79.60
2019-05-23T07:45:39.991Z,79.80
2019-05-23T07:48:08.025Z,79.30
2019-05-23T07:50:36.541Z,79.90
2019-05-23T07:53:05.227Z,79.10
2019-05-23T07:55:37.858Z,77.30
2019-05-23T07:58:07.439Z,76.40
2019-05-23T08:00:37.430Z,75.80
2019-05-23T08:03:06.147Z,75.90
2019-05-23T08:05:34.570Z,73.60
2019-05-23T08:08:03.054Z,73.90
2019-05-23T08:10:34.199Z,73.10
2019-05-23T08:13:01.862Z,71.40
2019-05-23T08:15:31.020Z,67.50
2019-05-23T08:17:59.423Z,68.10
2019-05-23T08:20:28.247Z,68.50
2019-05-23T08:22:56.501Z,70.90
2019-05-23T08:25:24.777Z,70.80
2019-05-23T08:27:53.166Z,72.30
2019-05-23T08:30:21.773Z,70.60
2019-05-23T08:32:50.053Z,71.50
2019-05-23T08:35:18.372Z,70.30
2019-05-23T08:37:46.808Z,68.00
2019-05-23T08:40:15.706Z,70.90
2019-05-23T08:42:44.354Z,70.10
2019-05-23T08:45:12.633Z,68.90
2019-05-23T08:47:40.896Z,69.10
2019-05-23T08:50:09.263Z,69.90
2019-05-23T08:52:37.525Z,71.80
2019-05-23T08:55:09.043Z,71.50
2019-05-23T08:57:37.678Z,71.00
2019-05-23T09:00:06.501Z,70.00
2019-05-23T09:02:35.818Z,69.30
2019-05-23T09:05:06.788Z,68.70
2019-05-23T09:07:35.251Z,67.30
2019-05-23T09:10:06.462Z,67.70
2019-05-23T09:12:34.948Z,67.50
2019-05-23T09:15:04.319Z,67.70
2019-05-23T09:17:49.717Z,67.00
2019-05-23T09:20:03.026Z,66.40
2019-05-23T09:22:31.355Z,65.60
2019-05-23T09:24:59.901Z,66.30
2019-05-23T09:27:28.204Z,66.80
2019-05-23T09:29:56.481Z,65.80
2019-05-23T09:32:25.009Z,64.30
2019-05-23T09:34:53.277Z,65.60
2019-05-23T09:37:22.324Z,67.10
2019-05-23T09:39:50.656Z,67.30
2019-05-23T09:42:18.931Z,67.40
2019-05-23T09:44:47.277Z,64.60
2019-05-23T09:47:15.531Z,64.80
2019-05-23T09:49:53.840Z,66.70
2019-05-23T09:52:14.329Z,65.60
2019-05-23T09:54:42.621Z,65.40
2019-05-23T09:57:11.960Z,63.60
2019-05-23T09:59:40.216Z,62.50
2019-05-23T10:02:08.858Z,61.30
2019-05-23T10:04:37.108Z,62.90
2019-05-23T10:07:05.384Z,64.60
2019-05-23T10:09:33.722Z,64.00
2019-05-23T10:12:01.994Z,64.20
2019-05-23T10:14:31.909Z,64.30
2019-05-23T10:17:00.189Z,64.30
2019-05-23T10:19:28.447Z,64.60
2019-05-23T10:21:56.718Z,65.50
2019-05-23T10:24:24.954Z,65.30
2019-05-23T10:26:53.273Z,64.10
2019-05-23T10:29:21.550Z,63.10
2019-05-23T10:31:49.786Z,59.30
2019-05-23T10:34:18.037Z,58.80
2019-05-23T10:36:46.367Z,58.00
2019-05-23T10:39:14.624Z,59.30
2019-05-23T10:41:43.442Z,60.50
2019-05-23T10:44:11.774Z,58.30
2019-05-23T10:46:40.195Z,60.40
2019-05-23T10:49:08.807Z,60.90
2019-05-23T10:51:37.090Z,59.70
2019-05-23T10:54:05.691Z,59.00
2019-05-23T10:56:34.365Z,59.50
2019-05-23T10:59:02.673Z,59.70
2019-05-23T11:01:30.939Z,59.90
2019-05-23T11:03:59.166Z,59.90
2019-05-23T11:06:27.836Z,59.00
2019-05-23T11:08:56.381Z,59.60
2019-05-23T11:11:24.887Z,60.00
2019-05-23T11:13:53.234Z,60.70
2019-05-23T11:16:22.270Z,58.50
2019-05-23T11:18:50.616Z,56.40
2019-05-23T11:21:18.909Z,56.90
2019-05-23T11:23:54.997Z,58.50
2019-05-23T11:26:23.314Z,57.90
2019-05-23T11:28:51.590Z,58.80
2019-05-23T11:31:21.524Z,58.50
2019-05-23T11:33:49.885Z,59.20
2019-05-23T11:36:33.838Z,56.80
2019-05-23T11:38:48.294Z,55.60
2019-05-23T11:41:16.535Z,55.40
2019-05-23T11:43:45.553Z,56.40
2019-05-23T11:46:15.479Z,55.50
2019-05-23T11:48:43.744Z,56.20
2019-05-23T11:51:12.014Z,57.60
2019-05-23T11:53:40.251Z,55.90
2019-05-23T11:56:08.565Z,55.20
2019-05-23T11:58:40.139Z,55.60
2019-05-23T12:01:19.902Z,54.60
2019-05-23T12:03:42.092Z,52.50
2019-05-23T12:06:10.473Z,53.50
2019-05-23T12:08:38.727Z,53.90
2019-05-23T12:11:06.993Z,53.40
2019-05-23T12:13:35.235Z,52.40
2019-05-23T12:16:03.880Z,53.00
2019-05-23T12:18:32.182Z,53.20
2019-05-23T12:21:00.464Z,51.90
2019-05-23T12:23:28.683Z,51.00
2019-05-23T12:25:56.998Z,51.20
2019-05-23T12:28:25.334Z,51.40
2019-05-23T12:30:53.606Z,51.70
2019-05-23T12:33:21.912Z,52.40
2019-05-23T12:35:56.610Z,52.50
2019-05-23T12:38:24.927Z,52.30
2019-05-23T12:40:55.567Z,51.60
2019-05-23T12:43:23.834Z,51.90
2019-05-23T12:45:52.097Z,53.10
2019-05-23T12:48:29.664Z,52.30
2019-05-23T12:51:02.359Z,50.80
2019-05-23T12:53:32.167Z,51.20
2019-05-23T12:56:01.643Z,51.80
2019-05-23T12:58:30.124Z,51.90
2019-05-23T13:01:02.763Z,50.90
2019-05-23T13:03:31.004Z,50.20
2019-05-23T13:05:59.290Z,50.60
2019-05-23T13:08:27.626Z,50.60
2019-05-23T13:10:55.979Z,50.40
2019-05-23T13:13:24.422Z,50.00
2019-05-23T13:15:52.727Z,49.70
2019-05-23T13:18:21.284Z,49.10
2019-05-23T13:20:50.111Z,49.10
2019-05-23T13:23:21.066Z,48.90
2019-05-23T13:25:55.999Z,49.60
2019-05-23T13:28:28.576Z,48.10
2019-05-23T13:33:45.178Z,49.50
2019-05-23T13:36:13.465Z,48.60
2019-05-23T13:38:42.191Z,47.80
2019-05-23T13:41:10.451Z,48.80
2019-05-23T13:43:38.756Z,49.20
2019-05-23T13:46:07.387Z,49.40
2019-05-23T13:48:35.646Z,46.60
2019-05-23T13:51:03.917Z,45.30
2019-05-23T13:53:32.527Z,47.40
2019-05-23T13:56:00.810Z,47.60
2019-05-23T13:58:29.540Z,48.00
2019-05-23T14:00:59.898Z,48.30
2019-05-23T14:03:28.664Z,48.90
2019-05-23T14:05:57.085Z,48.50
2019-05-23T14:08:25.319Z,47.40
2019-05-23T14:10:53.620Z,48.70
2019-05-23T14:13:22.389Z,49.30
2019-05-23T14:15:52.412Z,49.40
2019-05-23T14:18:22.666Z,48.40
2019-05-23T14:20:50.909Z,48.10
2019-05-23T14:23:26.761Z,48.50
2019-05-23T14:25:55.378Z,47.70
2019-05-23T14:28:23.819Z,48.20
2019-05-23T14:30:56.717Z,48.90
2019-05-23T14:33:25.903Z,48.40
2019-05-23T14:35:56.137Z,47.90
2019-05-23T14:38:30.966Z,48.90
2019-05-23T14:40:54.628Z,49.10
2019-05-23T14:43:27.036Z,49.20
2019-05-23T14:46:12.172Z,48.30
2019-05-23T14:48:48.043Z,48.20
2019-05-23T14:51:32.836Z,48.40
2019-05-23T14:54:08.562Z,48.70
2019-05-23T14:56:38.078Z,48.80
2019-05-23T14:59:06.421Z,47.20
2019-05-23T15:01:35.292Z,48.50
2019-05-23T15:04:04.489Z,48.00
2019-05-23T15:06:32.983Z,49.30
2019-05-23T15:09:01.226Z,47.70
2019-05-23T15:11:29.665Z,47.60
2019-05-23T15:13:57.912Z,48.60
2019-05-23T15:16:26.325Z,49.20
2019-05-23T15:18:54.652Z,48.90
2019-05-23T15:21:22.892Z,49.30
2019-05-23T15:23:51.183Z,47.80
2019-05-23T15:26:23.558Z,45.80
2019-05-23T15:28:49.460Z,46.80
2019-05-23T15:31:18.096Z,47.20
2019-05-23T15:33:46.442Z,47.40
2019-05-23T15:36:14.687Z,46.60
2019-05-23T15:38:42.956Z,47.20
2019-05-23T15:41:11.222Z,47.80
2019-05-23T15:43:40.309Z,47.00
2019-05-23T15:46:08.535Z,46.70
2019-05-23T15:48:36.805Z,47.90
2019-05-23T15:51:07.139Z,47.20
2019-05-23T15:53:37.082Z,48.10
2019-05-23T15:56:25.801Z,47.60
2019-05-23T15:58:38.642Z,45.90
2019-05-23T16:01:11.405Z,46.20
2019-05-23T16:03:50.663Z,46.30
2019-05-23T16:06:20.558Z,48.00
2019-05-23T16:08:48.775Z,47.10
2019-05-23T16:11:17.753Z,45.60
2019-05-23T16:13:46.491Z,44.60
2019-05-23T16:16:14.760Z,46.40
2019-05-23T16:18:43.007Z,45.50
2019-05-23T16:21:12.108Z,46.80
2019-05-23T16:23:40.436Z,46.40
2019-05-23T16:26:11.565Z,45.90
2019-05-23T16:28:38.717Z,46.50
2019-05-23T16:31:06.974Z,45.90
2019-05-23T16:33:35.291Z,46.50
2019-05-23T16:36:03.712Z,46.70
2019-05-23T16:38:31.950Z,45.90
2019-05-23T16:41:00.199Z,47.10
2019-05-23T16:43:28.426Z,46.60
2019-05-23T16:45:56.692Z,47.30
2019-05-23T16:48:25.013Z,45.90
2019-05-23T16:50:53.370Z,44.60
2019-05-23T16:53:22.728Z,45.90
2019-05-23T16:55:52.647Z,47.30
2019-05-23T16:58:37.762Z,50.30
2019-05-23T17:01:23.514Z,51.60
2019-05-23T17:03:57.788Z,50.70
2019-05-23T17:06:39.716Z,48.20
2019-05-23T17:09:31.614Z,47.30
2019-05-23T17:12:05.443Z,47.20
2019-05-23T17:14:44.450Z,47.00
2019-05-23T17:17:17.184Z,46.10
2019-05-23T17:19:53.306Z,46.40
2019-05-23T17:22:26.135Z,45.80
2019-05-23T17:25:02.247Z,46.20
2019-05-23T17:27:34.852Z,47.00
2019-05-23T17:30:18.296Z,47.30
2019-05-23T17:32:46.542Z,47.40
2019-05-23T17:35:14.811Z,48.10
2019-05-23T17:37:43.527Z,48.70
2019-05-23T17:40:24.545Z,47.90
2019-05-23T17:42:41.824Z,48.10
2019-05-23T17:45:14.017Z,47.90
2019-05-23T17:47:41.902Z,47.50
2019-05-23T17:50:10.164Z,47.70
2019-05-23T17:52:38.422Z,47.80
2019-05-23T17:55:06.859Z,48.10
2019-05-23T17:57:35.189Z,48.30
2019-05-23T18:00:05.815Z,48.90
2019-05-23T18:02:34.252Z,48.50
2019-05-23T18:05:02.951Z,48.70
2019-05-23T18:07:31.880Z,48.50
2019-05-23T18:10:00.199Z,48.60
2019-05-23T18:12:28.463Z,50.50
2019-05-23T18:14:56.716Z,51.00
2019-05-23T18:17:25.566Z,50.00
2019-05-23T18:19:53.843Z,50.20
2019-05-23T18:22:22.595Z,50.20
2019-05-23T18:24:50.855Z,50.80
2019-05-23T18:27:19.666Z,52.10
2019-05-23T18:29:48.313Z,52.10
2019-05-23T18:32:18.189Z,52.00
2019-05-23T18:34:47.314Z,52.10
2019-05-23T18:37:15.545Z,52.20
2019-05-23T18:39:43.961Z,52.30
2019-05-23T18:42:12.597Z,52.20
2019-05-23T18:44:41.215Z,52.80
2019-05-23T18:47:17.155Z,53.10
2019-05-23T18:49:45.420Z,53.40
2019-05-23T18:52:14.153Z,53.50
2019-05-23T18:54:42.412Z,53.80
2019-05-23T18:57:11.273Z,53.90
2019-05-23T18:59:44.610Z,54.10
2019-05-23T19:02:12.850Z,54.60
2019-05-23T19:04:41.190Z,55.20
2019-05-23T19:07:09.529Z,55.00
2019-05-23T19:09:38.476Z,55.60
2019-05-23T19:12:06.808Z,55.90
2019-05-23T19:14:35.128Z,55.80
2019-05-23T19:17:04.114Z,56.00
2019-05-23T19:19:33.042Z,56.60
2019-05-23T19:22:01.306Z,55.90
2019-05-23T19:24:29.587Z,56.20
2019-05-23T19:26:57.967Z,56.40
2019-05-23T19:29:26.275Z,56.60
2019-05-23T19:31:54.990Z,57.10
2019-05-23T19:34:23.427Z,57.10
2019-05-23T19:36:51.853Z,57.00
2019-05-23T19:39:20.965Z,57.30
2019-05-23T19:41:49.277Z,57.90
2019-05-23T19:44:17.564Z,58.20
2019-05-23T19:46:45.809Z,58.40
2019-05-23T19:49:14.165Z,58.50
2019-05-23T19:51:42.515Z,58.70
2019-05-23T19:54:10.835Z,58.60
2019-05-23T19:56:39.143Z,58.70
2019-05-23T19:59:07.419Z,59.20
2019-05-23T20:01:45.940Z,58.90
2019-05-23T20:04:15.072Z,59.50
2019-05-23T20:06:43.680Z,60.00
2019-05-23T20:09:15.181Z,60.40
2019-05-23T20:11:53.740Z,60.90
2019-05-23T20:14:13.492Z,61.10
2019-05-23T20:16:41.757Z,61.00
2019-05-23T20:19:10.002Z,61.80
2019-05-23T20:21:38.282Z,61.60
2019-05-23T20:24:06.516Z,61.60
2019-05-23T20:26:34.773Z,61.80
2019-05-23T20:29:03.567Z,61.40
2019-05-23T20:31:31.963Z,61.60
2019-05-23T20:34:00.394Z,61.90
2019-05-23T20:36:28.784Z,62.10
2019-05-23T20:38:57.051Z,62.30
2019-05-23T20:41:25.569Z,62.60
2019-05-23T20:43:53.827Z,62.80
2019-05-23T20:46:22.079Z,62.90
2019-05-23T20:48:50.454Z,63.10
2019-05-23T20:51:18.875Z,63.10
2019-05-23T20:53:53.006Z,63.00
2019-05-23T20:56:21.298Z,63.50
2019-05-23T20:58:49.531Z,63.80
2019-05-23T21:01:21.978Z,64.00
2019-05-23T21:03:50.894Z,65.20
2019-05-23T21:06:19.210Z,64.80
2019-05-23T21:08:47.443Z,64.80
2019-05-23T21:11:15.730Z,64.80
2019-05-23T21:13:46.789Z,65.10
2019-05-23T21:16:15.087Z,65.60
2019-05-23T21:18:43.357Z,66.10
2019-05-23T21:21:11.657Z,66.70
2019-05-23T21:23:39.924Z,66.30
2019-05-23T21:26:08.172Z,66.40
2019-05-23T21:28:36.412Z,66.50
2019-05-23T21:31:06.389Z,66.40
2019-05-23T21:33:34.663Z,66.50
2019-05-23T21:36:03.058Z,66.20
2019-05-23T21:38:31.431Z,66.80
2019-05-23T21:41:03.216Z,67.70
2019-05-23T21:43:32.772Z,66.70
2019-05-23T21:46:01.062Z,66.70
2019-05-23T21:48:29.290Z,67.10
2019-05-23T21:51:02.680Z,67.70
2019-05-23T21:53:30.923Z,67.90
2019-05-23T21:55:59.189Z,67.90
2019-05-23T21:58:27.425Z,68.00
2019-05-23T22:01:06.542Z,69.10
2019-05-23T22:03:56.264Z,68.60
2019-05-23T22:06:42.398Z,68.90
2019-05-23T22:09:12.305Z,69.20
2019-05-23T22:11:40.755Z,69.20
2019-05-23T22:14:09.062Z,69.40
2019-05-23T22:16:50.322Z,69.10
2019-05-23T22:22:27.135Z,70.00
2019-05-23T22:24:51.586Z,69.80
2019-05-23T22:27:29.254Z,68.90
2019-05-23T22:29:57.542Z,69.00
2019-05-23T22:32:28.559Z,69.30
2019-05-23T22:34:58.444Z,69.80
2019-05-23T22:37:26.804Z,69.90
2019-05-23T22:39:55.074Z,70.00
2019-05-23T22:42:23.680Z,70.20
2019-05-23T22:56:12.847Z,70.10
2019-05-23T22:58:41.133Z,70.20
2019-05-23T23:01:09.511Z,70.10
2019-05-23T23:03:37.769Z,70.60
2019-05-23T23:06:06.294Z,71.00
2019-05-23T23:08:34.678Z,70.90
2019-05-23T23:11:02.954Z,71.20
2019-05-23T23:16:01.085Z,70.60
2019-05-23T23:18:29.364Z,71.30
2019-05-23T23:20:57.592Z,71.60
2019-05-23T23:23:25.883Z,72.00
2019-05-23T23:25:54.179Z,71.30
2019-05-23T23:28:22.468Z,71.10
2019-05-23T23:30:51.398Z,71.50
2019-05-23T23:33:19.647Z,71.70
2019-05-23T23:35:47.895Z,72.20
2019-05-23T23:38:16.162Z,71.70
2019-05-23T23:40:44.490Z,72.00
2019-05-23T23:43:12.727Z,72.10
2019-05-23T23:45:58.870Z,72.20
2019-05-23T23:48:44.968Z,72.20
2019-05-23T23:51:31.259Z,72.00
2019-05-23T23:54:17.732Z,72.10
2019-05-23T23:57:03.902Z,72.00
2019-05-23T23:59:31.464Z,71.30
